sensor_id;sensor_type;location;lat;lon;timestamp;temperature;humidity
14737;DHT22;7459;53.590;10.062;2024-01-30T00:01:25;6.30;99.90
14737;DHT22;7459;53.590;10.062;2024-01-30T00:03:51;6.20;99.90
14737;DHT22;7459;53.590;10.062;2024-01-30T00:06:20;6.20;99.90
14737;DHT22;7459;53.590;10.062;2024-01-30T00:08:49;6.20;99.90
14737;DHT22;7459;53.590;10.062;2024-01-30T00:11:16;6.20;99.90
14737;DHT22;7459;53.590;10.062;2024-01-30T00:13:41;6.20;99.90
14737;DHT22;7459;53.590;10.062;2024-01-30T00:16:07;6.20;99.90
14737;DHT22;7459;53.590;10.062;2024-01-30T00:18:34;6.20;99.90
14737;DHT22;7459;53.590;10.062;2024-01-30T00:21:00;6.20;99.90
14737;DHT22;7459;53.590;10.062;2024-01-30T00:23:25;6.20;99.90
14737;DHT22;7459;53.590;10.062;2024-01-30T00:25:51;6.20;99.90
14737;DHT22;7459;53.590;10.062;2024-01-30T00:28:17;6.20;99.90
14737;DHT22;7459;53.590;10.062;2024-01-30T00:30:42;6.20;99.90
14737;DHT22;7459;53.590;10.062;2024-01-30T00:33:09;6.20;99.90
14737;DHT22;7459;53.590;10.062;2024-01-30T00:35:35;6.20;99.90
14737;DHT22;7459;53.590;10.062;2024-01-30T00:38:00;6.20;99.90
14737;DHT22;7459;53.590;10.062;2024-01-30T00:40:26;6.20;99.90
14737;DHT22;7459;53.590;10.062;2024-01-30T00:42:52;6.20;99.90
14737;DHT22;7459;53.590;10.062;2024-01-30T00:45:18;6.20;99.90
14737;DHT22;7459;53.590;10.062;2024-01-30T00:47:44;6.20;99.90
14737;DHT22;7459;53.590;10.062;2024-01-30T00:50:10;6.20;99.90
14737;DHT22;7459;53.590;10.062;2024-01-30T00:52:36;6.10;99.90
14737;DHT22;7459;53.590;10.062;2024-01-30T00:55:02;6.10;99.90
14737;DHT22;7459;53.590;10.062;2024-01-30T00:57:28;6.10;99.90
14737;DHT22;7459;53.590;10.062;2024-01-30T00:59:54;6.20;99.90
14737;DHT22;7459;53.590;10.062;2024-01-30T01:02:20;6.10;99.90
14737;DHT22;7459;53.590;10.062;2024-01-30T01:04:45;6.10;99.90
14737;DHT22;7459;53.590;10.062;2024-01-30T01:07:11;6.20;99.90
14737;DHT22;7459;53.590;10.062;2024-01-30T01:09:37;6.20;99.90
14737;DHT22;7459;53.590;10.062;2024-01-30T01:12:03;6.10;99.90
14737;DHT22;7459;53.590;10.062;2024-01-30T01:14:30;6.20;99.90
14737;DHT22;7459;53.590;10.062;2024-01-30T01:16:55;6.20;99.90
14737;DHT22;7459;53.590;10.062;2024-01-30T01:19:21;6.10;99.90
14737;DHT22;7459;53.590;10.062;2024-01-30T01:21:47;6.10;99.90
14737;DHT22;7459;53.590;10.062;2024-01-30T01:24:13;6.10;99.90
14737;DHT22;7459;53.590;10.062;2024-01-30T01:26:39;6.10;99.90
14737;DHT22;7459;53.590;10.062;2024-01-30T01:29:05;6.10;99.90
14737;DHT22;7459;53.590;10.062;2024-01-30T01:31:36;6.10;99.90
14737;DHT22;7459;53.590;10.062;2024-01-30T01:34:05;6.10;99.90
14737;DHT22;7459;53.590;10.062;2024-01-30T01:36:31;6.10;99.90
14737;DHT22;7459;53.590;10.062;2024-01-30T01:38:57;6.10;99.90
14737;DHT22;7459;53.590;10.062;2024-01-30T01:41:23;6.10;99.90
14737;DHT22;7459;53.590;10.062;2024-01-30T01:43:48;6.10;99.90
14737;DHT22;7459;53.590;10.062;2024-01-30T01:46:14;6.10;99.90
14737;DHT22;7459;53.590;10.062;2024-01-30T01:48:41;6.10;99.90
14737;DHT22;7459;53.590;10.062;2024-01-30T01:51:08;6.00;99.90
14737;DHT22;7459;53.590;10.062;2024-01-30T01:53:35;6.00;99.90
14737;DHT22;7459;53.590;10.062;2024-01-30T01:56:01;6.00;99.90
14737;DHT22;7459;53.590;10.062;2024-01-30T01:58:28;5.90;99.90
14737;DHT22;7459;53.590;10.062;2024-01-30T02:00:56;6.00;99.90
14737;DHT22;7459;53.590;10.062;2024-01-30T02:03:22;6.00;99.90
14737;DHT22;7459;53.590;10.062;2024-01-30T02:05:48;6.00;99.90
14737;DHT22;7459;53.590;10.062;2024-01-30T02:08:16;6.00;99.90
14737;DHT22;7459;53.590;10.062;2024-01-30T02:10:42;5.90;99.90
14737;DHT22;7459;53.590;10.062;2024-01-30T02:13:07;6.00;99.90
14737;DHT22;7459;53.590;10.062;2024-01-30T02:15:33;5.90;99.90
14737;DHT22;7459;53.590;10.062;2024-01-30T02:17:59;5.90;99.90
14737;DHT22;7459;53.590;10.062;2024-01-30T02:20:25;5.90;99.90
14737;DHT22;7459;53.590;10.062;2024-01-30T02:22:54;6.00;99.90
14737;DHT22;7459;53.590;10.062;2024-01-30T02:25:33;5.90;99.90
14737;DHT22;7459;53.590;10.062;2024-01-30T02:28:00;5.90;99.90
14737;DHT22;7459;53.590;10.062;2024-01-30T02:30:25;6.00;99.90
14737;DHT22;7459;53.590;10.062;2024-01-30T02:32:51;5.90;99.90
14737;DHT22;7459;53.590;10.062;2024-01-30T02:35:17;6.00;99.90
14737;DHT22;7459;53.590;10.062;2024-01-30T02:37:43;6.00;99.90
14737;DHT22;7459;53.590;10.062;2024-01-30T02:40:08;6.00;99.90
14737;DHT22;7459;53.590;10.062;2024-01-30T02:42:34;6.00;99.90
14737;DHT22;7459;53.590;10.062;2024-01-30T02:45:00;6.00;99.90
14737;DHT22;7459;53.590;10.062;2024-01-30T02:47:26;5.90;99.90
14737;DHT22;7459;53.590;10.062;2024-01-30T02:49:51;5.90;99.90
14737;DHT22;7459;53.590;10.062;2024-01-30T02:52:17;5.90;99.90
14737;DHT22;7459;53.590;10.062;2024-01-30T02:54:44;5.90;99.90
14737;DHT22;7459;53.590;10.062;2024-01-30T02:57:10;5.90;99.90
14737;DHT22;7459;53.590;10.062;2024-01-30T02:59:35;5.90;99.90
14737;DHT22;7459;53.590;10.062;2024-01-30T03:02:01;5.80;99.90
14737;DHT22;7459;53.590;10.062;2024-01-30T03:07:03;5.80;99.90
14737;DHT22;7459;53.590;10.062;2024-01-30T03:09:29;5.80;99.90
14737;DHT22;7459;53.590;10.062;2024-01-30T03:11:54;5.80;99.90
14737;DHT22;7459;53.590;10.062;2024-01-30T03:14:20;5.80;99.90
14737;DHT22;7459;53.590;10.062;2024-01-30T03:16:45;5.70;99.90
14737;DHT22;7459;53.590;10.062;2024-01-30T03:19:11;5.80;99.90
14737;DHT22;7459;53.590;10.062;2024-01-30T03:21:37;5.80;99.90
14737;DHT22;7459;53.590;10.062;2024-01-30T03:24:03;5.80;99.90
14737;DHT22;7459;53.590;10.062;2024-01-30T03:26:28;5.80;99.90
14737;DHT22;7459;53.590;10.062;2024-01-30T03:28:54;5.80;99.90
14737;DHT22;7459;53.590;10.062;2024-01-30T03:31:20;5.80;99.90
14737;DHT22;7459;53.590;10.062;2024-01-30T03:33:45;5.90;99.90
14737;DHT22;7459;53.590;10.062;2024-01-30T03:36:11;5.80;99.90
14737;DHT22;7459;53.590;10.062;2024-01-30T03:38:37;5.80;99.90
14737;DHT22;7459;53.590;10.062;2024-01-30T03:41:02;5.80;99.90
14737;DHT22;7459;53.590;10.062;2024-01-30T03:43:28;5.80;99.90
14737;DHT22;7459;53.590;10.062;2024-01-30T03:45:54;5.80;99.90
14737;DHT22;7459;53.590;10.062;2024-01-30T03:48:21;5.80;99.90
14737;DHT22;7459;53.590;10.062;2024-01-30T03:50:47;5.80;99.90
14737;DHT22;7459;53.590;10.062;2024-01-30T03:53:12;5.80;99.90
14737;DHT22;7459;53.590;10.062;2024-01-30T03:55:38;5.70;99.90
14737;DHT22;7459;53.590;10.062;2024-01-30T03:58:03;5.70;99.90
14737;DHT22;7459;53.590;10.062;2024-01-30T04:00:29;5.70;99.90
14737;DHT22;7459;53.590;10.062;2024-01-30T04:02:55;5.70;99.90
14737;DHT22;7459;53.590;10.062;2024-01-30T04:05:21;5.60;99.90
14737;DHT22;7459;53.590;10.062;2024-01-30T04:07:46;5.60;99.90
14737;DHT22;7459;53.590;10.062;2024-01-30T04:10:12;5.60;99.90
14737;DHT22;7459;53.590;10.062;2024-01-30T04:12:37;5.60;99.90
14737;DHT22;7459;53.590;10.062;2024-01-30T04:15:03;5.60;99.90
14737;DHT22;7459;53.590;10.062;2024-01-30T04:17:29;5.60;99.90
14737;DHT22;7459;53.590;10.062;2024-01-30T04:19:55;5.60;99.90
14737;DHT22;7459;53.590;10.062;2024-01-30T04:22:21;5.50;99.90
14737;DHT22;7459;53.590;10.062;2024-01-30T04:24:47;5.50;99.90
14737;DHT22;7459;53.590;10.062;2024-01-30T04:27:12;5.50;99.90
14737;DHT22;7459;53.590;10.062;2024-01-30T04:29:38;5.60;99.90
14737;DHT22;7459;53.590;10.062;2024-01-30T04:32:04;5.50;99.90
14737;DHT22;7459;53.590;10.062;2024-01-30T04:34:30;5.60;99.90
14737;DHT22;7459;53.590;10.062;2024-01-30T04:36:56;5.60;99.90
14737;DHT22;7459;53.590;10.062;2024-01-30T04:39:21;5.50;99.90
14737;DHT22;7459;53.590;10.062;2024-01-30T04:41:47;5.50;99.90
14737;DHT22;7459;53.590;10.062;2024-01-30T04:44:13;5.50;99.90
14737;DHT22;7459;53.590;10.062;2024-01-30T04:46:39;5.50;99.90
14737;DHT22;7459;53.590;10.062;2024-01-30T04:49:05;5.50;99.90
14737;DHT22;7459;53.590;10.062;2024-01-30T04:51:33;5.50;99.90
14737;DHT22;7459;53.590;10.062;2024-01-30T04:53:58;5.50;99.90
14737;DHT22;7459;53.590;10.062;2024-01-30T04:56:24;5.50;99.90
14737;DHT22;7459;53.590;10.062;2024-01-30T04:58:50;5.50;99.90
14737;DHT22;7459;53.590;10.062;2024-01-30T05:01:16;5.40;99.90
14737;DHT22;7459;53.590;10.062;2024-01-30T05:03:42;5.40;99.90
14737;DHT22;7459;53.590;10.062;2024-01-30T05:06:08;5.40;99.90
14737;DHT22;7459;53.590;10.062;2024-01-30T05:08:34;5.40;99.90
14737;DHT22;7459;53.590;10.062;2024-01-30T05:11:02;5.40;99.90
14737;DHT22;7459;53.590;10.062;2024-01-30T05:13:31;5.40;99.90
14737;DHT22;7459;53.590;10.062;2024-01-30T05:15:57;5.40;99.90
14737;DHT22;7459;53.590;10.062;2024-01-30T05:18:23;5.30;99.90
14737;DHT22;7459;53.590;10.062;2024-01-30T05:20:50;5.40;99.90
14737;DHT22;7459;53.590;10.062;2024-01-30T05:23:16;5.40;99.90
14737;DHT22;7459;53.590;10.062;2024-01-30T05:25:42;5.40;99.90
14737;DHT22;7459;53.590;10.062;2024-01-30T05:28:07;5.40;99.90
14737;DHT22;7459;53.590;10.062;2024-01-30T05:30:33;5.40;99.90
14737;DHT22;7459;53.590;10.062;2024-01-30T05:32:59;5.50;99.90
14737;DHT22;7459;53.590;10.062;2024-01-30T05:35:24;5.50;99.90
14737;DHT22;7459;53.590;10.062;2024-01-30T05:37:50;5.50;99.90
14737;DHT22;7459;53.590;10.062;2024-01-30T05:40:16;5.50;99.90
14737;DHT22;7459;53.590;10.062;2024-01-30T05:42:42;5.50;99.90
14737;DHT22;7459;53.590;10.062;2024-01-30T05:45:08;5.50;99.90
14737;DHT22;7459;53.590;10.062;2024-01-30T05:47:36;5.50;99.90
14737;DHT22;7459;53.590;10.062;2024-01-30T05:50:02;5.50;99.90
14737;DHT22;7459;53.590;10.062;2024-01-30T05:52:28;5.50;99.90
14737;DHT22;7459;53.590;10.062;2024-01-30T05:54:54;5.50;99.90
14737;DHT22;7459;53.590;10.062;2024-01-30T05:57:20;5.60;99.90
14737;DHT22;7459;53.590;10.062;2024-01-30T05:59:45;5.60;99.90
14737;DHT22;7459;53.590;10.062;2024-01-30T06:02:13;5.60;99.90
14737;DHT22;7459;53.590;10.062;2024-01-30T06:04:39;5.50;99.90
14737;DHT22;7459;53.590;10.062;2024-01-30T06:07:04;5.50;99.90
14737;DHT22;7459;53.590;10.062;2024-01-30T06:09:31;5.50;99.90
14737;DHT22;7459;53.590;10.062;2024-01-30T06:11:57;5.50;99.90
14737;DHT22;7459;53.590;10.062;2024-01-30T06:14:23;5.40;99.90
14737;DHT22;7459;53.590;10.062;2024-01-30T06:16:49;5.40;99.90
14737;DHT22;7459;53.590;10.062;2024-01-30T06:19:15;5.40;99.90
14737;DHT22;7459;53.590;10.062;2024-01-30T06:21:41;5.40;99.90
14737;DHT22;7459;53.590;10.062;2024-01-30T06:24:06;5.40;99.90
14737;DHT22;7459;53.590;10.062;2024-01-30T06:26:33;5.40;99.90
14737;DHT22;7459;53.590;10.062;2024-01-30T06:28:59;5.40;99.90
14737;DHT22;7459;53.590;10.062;2024-01-30T06:31:25;5.50;99.90
14737;DHT22;7459;53.590;10.062;2024-01-30T06:33:50;5.50;99.90
14737;DHT22;7459;53.590;10.062;2024-01-30T06:36:16;5.40;99.90
14737;DHT22;7459;53.590;10.062;2024-01-30T06:38:42;5.50;99.90
14737;DHT22;7459;53.590;10.062;2024-01-30T06:41:07;5.50;99.90
14737;DHT22;7459;53.590;10.062;2024-01-30T06:43:33;5.40;99.90
14737;DHT22;7459;53.590;10.062;2024-01-30T06:45:59;5.40;99.90
14737;DHT22;7459;53.590;10.062;2024-01-30T06:48:25;5.40;99.90
14737;DHT22;7459;53.590;10.062;2024-01-30T06:50:53;5.40;99.90
14737;DHT22;7459;53.590;10.062;2024-01-30T06:53:19;5.40;99.90
14737;DHT22;7459;53.590;10.062;2024-01-30T06:55:45;5.50;99.90
14737;DHT22;7459;53.590;10.062;2024-01-30T06:58:11;5.50;99.90
14737;DHT22;7459;53.590;10.062;2024-01-30T07:00:37;5.50;99.90
14737;DHT22;7459;53.590;10.062;2024-01-30T07:03:03;5.40;99.90
14737;DHT22;7459;53.590;10.062;2024-01-30T07:05:29;5.40;99.90
14737;DHT22;7459;53.590;10.062;2024-01-30T07:07:54;5.40;99.90
14737;DHT22;7459;53.590;10.062;2024-01-30T07:10:20;5.40;99.90
14737;DHT22;7459;53.590;10.062;2024-01-30T07:12:46;5.50;99.90
14737;DHT22;7459;53.590;10.062;2024-01-30T07:15:12;5.40;99.90
14737;DHT22;7459;53.590;10.062;2024-01-30T07:17:40;5.50;99.90
14737;DHT22;7459;53.590;10.062;2024-01-30T07:20:06;5.50;99.90
14737;DHT22;7459;53.590;10.062;2024-01-30T07:22:32;5.40;99.90
14737;DHT22;7459;53.590;10.062;2024-01-30T07:24:58;5.50;99.90
14737;DHT22;7459;53.590;10.062;2024-01-30T07:27:24;5.50;99.90
14737;DHT22;7459;53.590;10.062;2024-01-30T07:29:50;5.50;99.90
14737;DHT22;7459;53.590;10.062;2024-01-30T07:32:15;5.50;99.90
14737;DHT22;7459;53.590;10.062;2024-01-30T07:34:41;5.50;99.90
14737;DHT22;7459;53.590;10.062;2024-01-30T07:37:07;5.50;99.90
14737;DHT22;7459;53.590;10.062;2024-01-30T07:39:34;5.50;99.90
14737;DHT22;7459;53.590;10.062;2024-01-30T07:42:00;5.50;99.90
14737;DHT22;7459;53.590;10.062;2024-01-30T07:44:25;5.50;99.90
14737;DHT22;7459;53.590;10.062;2024-01-30T07:46:51;5.40;99.90
14737;DHT22;7459;53.590;10.062;2024-01-30T07:49:17;5.50;99.90
14737;DHT22;7459;53.590;10.062;2024-01-30T07:51:42;5.50;99.90
14737;DHT22;7459;53.590;10.062;2024-01-30T07:54:10;5.50;99.90
14737;DHT22;7459;53.590;10.062;2024-01-30T07:56:36;5.50;99.90
14737;DHT22;7459;53.590;10.062;2024-01-30T07:59:01;5.50;99.90
14737;DHT22;7459;53.590;10.062;2024-01-30T08:01:27;5.50;99.90
14737;DHT22;7459;53.590;10.062;2024-01-30T08:03:53;5.60;99.90
14737;DHT22;7459;53.590;10.062;2024-01-30T08:06:18;5.60;99.90
14737;DHT22;7459;53.590;10.062;2024-01-30T08:08:45;5.50;99.90
14737;DHT22;7459;53.590;10.062;2024-01-30T08:11:10;5.60;99.90
14737;DHT22;7459;53.590;10.062;2024-01-30T08:13:36;5.60;99.90
14737;DHT22;7459;53.590;10.062;2024-01-30T08:16:02;5.60;99.90
14737;DHT22;7459;53.590;10.062;2024-01-30T08:18:27;5.60;99.90
14737;DHT22;7459;53.590;10.062;2024-01-30T08:20:53;5.60;99.90
14737;DHT22;7459;53.590;10.062;2024-01-30T08:23:19;5.60;99.90
14737;DHT22;7459;53.590;10.062;2024-01-30T08:25:44;5.60;99.90
14737;DHT22;7459;53.590;10.062;2024-01-30T08:28:10;5.70;99.90
14737;DHT22;7459;53.590;10.062;2024-01-30T08:30:36;5.70;99.90
14737;DHT22;7459;53.590;10.062;2024-01-30T08:33:02;5.70;99.90
14737;DHT22;7459;53.590;10.062;2024-01-30T08:35:28;5.70;99.90
14737;DHT22;7459;53.590;10.062;2024-01-30T08:37:53;5.70;99.90
14737;DHT22;7459;53.590;10.062;2024-01-30T08:40:19;5.70;99.90
14737;DHT22;7459;53.590;10.062;2024-01-30T08:42:45;5.80;99.90
14737;DHT22;7459;53.590;10.062;2024-01-30T08:45:11;5.80;99.90
14737;DHT22;7459;53.590;10.062;2024-01-30T08:47:37;5.80;99.90
14737;DHT22;7459;53.590;10.062;2024-01-30T08:50:03;5.80;99.90
14737;DHT22;7459;53.590;10.062;2024-01-30T08:52:29;5.80;99.90
14737;DHT22;7459;53.590;10.062;2024-01-30T08:54:54;5.90;99.90
14737;DHT22;7459;53.590;10.062;2024-01-30T08:57:20;5.90;99.90
14737;DHT22;7459;53.590;10.062;2024-01-30T08:59:46;5.90;99.90
14737;DHT22;7459;53.590;10.062;2024-01-30T09:02:13;5.90;99.90
14737;DHT22;7459;53.590;10.062;2024-01-30T09:04:41;6.00;99.90
14737;DHT22;7459;53.590;10.062;2024-01-30T09:07:08;6.00;99.90
14737;DHT22;7459;53.590;10.062;2024-01-30T09:09:34;6.00;99.90
14737;DHT22;7459;53.590;10.062;2024-01-30T09:12:00;6.00;99.90
14737;DHT22;7459;53.590;10.062;2024-01-30T09:14:32;6.10;99.90
14737;DHT22;7459;53.590;10.062;2024-01-30T09:16:58;6.10;99.90
14737;DHT22;7459;53.590;10.062;2024-01-30T09:19:23;6.10;99.90
14737;DHT22;7459;53.590;10.062;2024-01-30T09:21:49;6.20;99.90
14737;DHT22;7459;53.590;10.062;2024-01-30T09:24:14;6.20;99.90
14737;DHT22;7459;53.590;10.062;2024-01-30T09:26:40;6.20;99.90
14737;DHT22;7459;53.590;10.062;2024-01-30T09:29:06;6.30;99.90
14737;DHT22;7459;53.590;10.062;2024-01-30T09:31:31;6.30;99.90
14737;DHT22;7459;53.590;10.062;2024-01-30T09:33:57;6.30;99.90
14737;DHT22;7459;53.590;10.062;2024-01-30T09:36:23;6.40;99.90
14737;DHT22;7459;53.590;10.062;2024-01-30T09:38:49;6.40;99.90
14737;DHT22;7459;53.590;10.062;2024-01-30T09:41:15;6.40;99.90
14737;DHT22;7459;53.590;10.062;2024-01-30T09:43:47;6.40;99.90
14737;DHT22;7459;53.590;10.062;2024-01-30T09:46:15;6.50;99.90
14737;DHT22;7459;53.590;10.062;2024-01-30T09:48:42;6.50;99.90
14737;DHT22;7459;53.590;10.062;2024-01-30T09:51:09;6.60;99.90
14737;DHT22;7459;53.590;10.062;2024-01-30T09:53:36;6.60;99.90
14737;DHT22;7459;53.590;10.062;2024-01-30T09:56:02;6.60;99.90
14737;DHT22;7459;53.590;10.062;2024-01-30T09:58:28;6.70;99.90
14737;DHT22;7459;53.590;10.062;2024-01-30T10:00:54;6.60;99.90
14737;DHT22;7459;53.590;10.062;2024-01-30T10:03:20;6.70;99.90
14737;DHT22;7459;53.590;10.062;2024-01-30T10:05:51;6.70;99.90
14737;DHT22;7459;53.590;10.062;2024-01-30T10:08:20;6.70;99.90
14737;DHT22;7459;53.590;10.062;2024-01-30T10:10:47;6.70;99.90
14737;DHT22;7459;53.590;10.062;2024-01-30T10:13:13;6.80;99.90
14737;DHT22;7459;53.590;10.062;2024-01-30T10:15:39;6.70;99.90
14737;DHT22;7459;53.590;10.062;2024-01-30T10:18:06;6.80;99.90
14737;DHT22;7459;53.590;10.062;2024-01-30T10:20:32;6.80;99.90
14737;DHT22;7459;53.590;10.062;2024-01-30T10:22:59;6.80;99.90
14737;DHT22;7459;53.590;10.062;2024-01-30T10:25:25;6.80;99.90
14737;DHT22;7459;53.590;10.062;2024-01-30T10:27:55;6.80;99.90
14737;DHT22;7459;53.590;10.062;2024-01-30T10:30:22;6.90;99.90
14737;DHT22;7459;53.590;10.062;2024-01-30T10:32:48;6.90;99.90
14737;DHT22;7459;53.590;10.062;2024-01-30T10:35:14;6.90;99.90
14737;DHT22;7459;53.590;10.062;2024-01-30T10:37:41;6.90;99.90
14737;DHT22;7459;53.590;10.062;2024-01-30T10:40:09;7.00;99.90
14737;DHT22;7459;53.590;10.062;2024-01-30T10:42:42;7.00;99.90
14737;DHT22;7459;53.590;10.062;2024-01-30T10:45:10;7.00;99.90
14737;DHT22;7459;53.590;10.062;2024-01-30T10:47:40;7.10;99.90
14737;DHT22;7459;53.590;10.062;2024-01-30T10:50:09;7.10;99.90
14737;DHT22;7459;53.590;10.062;2024-01-30T10:52:36;7.10;99.90
14737;DHT22;7459;53.590;10.062;2024-01-30T10:55:04;7.20;99.90
14737;DHT22;7459;53.590;10.062;2024-01-30T10:57:34;7.20;99.90
14737;DHT22;7459;53.590;10.062;2024-01-30T11:00:06;7.20;99.90
14737;DHT22;7459;53.590;10.062;2024-01-30T11:02:39;7.30;99.90
14737;DHT22;7459;53.590;10.062;2024-01-30T11:05:06;7.30;99.90
14737;DHT22;7459;53.590;10.062;2024-01-30T11:07:32;7.30;99.90
14737;DHT22;7459;53.590;10.062;2024-01-30T11:12:24;7.40;99.90
14737;DHT22;7459;53.590;10.062;2024-01-30T11:15:02;7.40;99.90
14737;DHT22;7459;53.590;10.062;2024-01-30T11:20:27;7.40;99.90
14737;DHT22;7459;53.590;10.062;2024-01-30T11:22:55;7.50;99.90
14737;DHT22;7459;53.590;10.062;2024-01-30T11:25:22;7.50;99.90
14737;DHT22;7459;53.590;10.062;2024-01-30T11:27:53;7.50;99.90
14737;DHT22;7459;53.590;10.062;2024-01-30T11:33:09;7.50;99.90
14737;DHT22;7459;53.590;10.062;2024-01-30T11:35:40;7.50;99.90
14737;DHT22;7459;53.590;10.062;2024-01-30T11:38:11;7.60;99.90
14737;DHT22;7459;53.590;10.062;2024-01-30T11:40:39;7.60;99.90
14737;DHT22;7459;53.590;10.062;2024-01-30T11:43:07;7.60;99.90
14737;DHT22;7459;53.590;10.062;2024-01-30T11:45:34;7.60;99.90
14737;DHT22;7459;53.590;10.062;2024-01-30T11:48:01;7.60;99.90
14737;DHT22;7459;53.590;10.062;2024-01-30T11:50:35;7.60;99.90
14737;DHT22;7459;53.590;10.062;2024-01-30T11:53:00;7.60;99.90
14737;DHT22;7459;53.590;10.062;2024-01-30T11:55:26;7.70;99.90
14737;DHT22;7459;53.590;10.062;2024-01-30T11:57:59;7.70;99.90
14737;DHT22;7459;53.590;10.062;2024-01-30T12:00:25;7.70;99.90
14737;DHT22;7459;53.590;10.062;2024-01-30T12:02:52;7.70;99.90
14737;DHT22;7459;53.590;10.062;2024-01-30T12:05:25;7.70;99.90
14737;DHT22;7459;53.590;10.062;2024-01-30T12:07:51;7.80;99.90
14737;DHT22;7459;53.590;10.062;2024-01-30T12:10:17;7.80;99.90
14737;DHT22;7459;53.590;10.062;2024-01-30T12:12:49;7.80;99.90
14737;DHT22;7459;53.590;10.062;2024-01-30T12:15:15;7.80;99.90
14737;DHT22;7459;53.590;10.062;2024-01-30T12:17:42;7.80;99.90
14737;DHT22;7459;53.590;10.062;2024-01-30T12:20:17;7.80;99.90
14737;DHT22;7459;53.590;10.062;2024-01-30T12:22:45;7.80;99.90
14737;DHT22;7459;53.590;10.062;2024-01-30T12:25:16;7.90;99.90
14737;DHT22;7459;53.590;10.062;2024-01-30T12:27:49;7.90;99.90
14737;DHT22;7459;53.590;10.062;2024-01-30T12:30:17;7.90;99.90
14737;DHT22;7459;53.590;10.062;2024-01-30T12:32:45;7.90;99.90
14737;DHT22;7459;53.590;10.062;2024-01-30T12:37:43;8.00;99.90
14737;DHT22;7459;53.590;10.062;2024-01-30T12:40:10;8.00;99.90
14737;DHT22;7459;53.590;10.062;2024-01-30T12:42:38;8.00;99.90
14737;DHT22;7459;53.590;10.062;2024-01-30T12:45:04;8.00;99.90
14737;DHT22;7459;53.590;10.062;2024-01-30T12:47:31;8.00;99.90
14737;DHT22;7459;53.590;10.062;2024-01-30T12:49:57;8.10;99.90
14737;DHT22;7459;53.590;10.062;2024-01-30T12:52:23;8.10;99.90
14737;DHT22;7459;53.590;10.062;2024-01-30T12:54:49;8.10;99.90
14737;DHT22;7459;53.590;10.062;2024-01-30T12:57:15;8.20;99.90
14737;DHT22;7459;53.590;10.062;2024-01-30T12:59:42;8.20;99.90
14737;DHT22;7459;53.590;10.062;2024-01-30T13:02:08;8.20;99.90
14737;DHT22;7459;53.590;10.062;2024-01-30T13:04:34;8.20;99.90
14737;DHT22;7459;53.590;10.062;2024-01-30T13:07:00;8.30;99.90
14737;DHT22;7459;53.590;10.062;2024-01-30T13:09:26;8.30;99.90
14737;DHT22;7459;53.590;10.062;2024-01-30T13:11:52;8.30;99.90
14737;DHT22;7459;53.590;10.062;2024-01-30T13:14:18;8.30;99.90
14737;DHT22;7459;53.590;10.062;2024-01-30T13:16:44;8.40;99.90
14737;DHT22;7459;53.590;10.062;2024-01-30T13:19:10;8.40;99.90
14737;DHT22;7459;53.590;10.062;2024-01-30T13:21:36;8.40;99.90
14737;DHT22;7459;53.590;10.062;2024-01-30T13:24:01;8.40;99.90
14737;DHT22;7459;53.590;10.062;2024-01-30T13:26:27;8.40;99.90
14737;DHT22;7459;53.590;10.062;2024-01-30T13:28:54;8.40;99.90
14737;DHT22;7459;53.590;10.062;2024-01-30T13:31:22;8.40;99.90
14737;DHT22;7459;53.590;10.062;2024-01-30T13:33:48;8.40;99.90
14737;DHT22;7459;53.590;10.062;2024-01-30T13:36:14;8.40;99.90
14737;DHT22;7459;53.590;10.062;2024-01-30T13:38:40;8.50;99.90
14737;DHT22;7459;53.590;10.062;2024-01-30T13:41:06;8.50;99.90
14737;DHT22;7459;53.590;10.062;2024-01-30T13:43:31;8.50;99.90
14737;DHT22;7459;53.590;10.062;2024-01-30T13:45:57;8.60;99.90
14737;DHT22;7459;53.590;10.062;2024-01-30T13:48:23;8.60;99.90
14737;DHT22;7459;53.590;10.062;2024-01-30T13:50:49;8.60;99.90
14737;DHT22;7459;53.590;10.062;2024-01-30T13:53:14;8.60;99.90
14737;DHT22;7459;53.590;10.062;2024-01-30T13:55:40;8.60;99.90
14737;DHT22;7459;53.590;10.062;2024-01-30T13:58:06;8.60;99.90
14737;DHT22;7459;53.590;10.062;2024-01-30T14:00:33;8.60;99.90
14737;DHT22;7459;53.590;10.062;2024-01-30T14:02:59;8.60;99.90
14737;DHT22;7459;53.590;10.062;2024-01-30T14:05:28;8.70;99.90
14737;DHT22;7459;53.590;10.062;2024-01-30T14:07:54;8.70;99.90
14737;DHT22;7459;53.590;10.062;2024-01-30T14:10:20;8.70;99.90
14737;DHT22;7459;53.590;10.062;2024-01-30T14:12:46;8.70;99.90
14737;DHT22;7459;53.590;10.062;2024-01-30T14:15:13;8.70;99.90
14737;DHT22;7459;53.590;10.062;2024-01-30T14:17:40;8.70;99.90
14737;DHT22;7459;53.590;10.062;2024-01-30T14:20:07;8.70;99.90
14737;DHT22;7459;53.590;10.062;2024-01-30T14:22:37;8.70;99.90
14737;DHT22;7459;53.590;10.062;2024-01-30T14:25:03;8.80;99.90
14737;DHT22;7459;53.590;10.062;2024-01-30T14:27:30;8.80;99.90
14737;DHT22;7459;53.590;10.062;2024-01-30T14:29:56;8.80;99.90
14737;DHT22;7459;53.590;10.062;2024-01-30T14:32:23;8.90;99.90
14737;DHT22;7459;53.590;10.062;2024-01-30T14:34:49;8.90;99.90
14737;DHT22;7459;53.590;10.062;2024-01-30T14:37:15;8.90;99.90
14737;DHT22;7459;53.590;10.062;2024-01-30T14:39:42;8.90;99.90
14737;DHT22;7459;53.590;10.062;2024-01-30T14:42:07;9.00;99.90
14737;DHT22;7459;53.590;10.062;2024-01-30T14:44:33;9.00;99.90
14737;DHT22;7459;53.590;10.062;2024-01-30T14:46:59;9.00;99.90
14737;DHT22;7459;53.590;10.062;2024-01-30T14:49:26;9.00;99.90
14737;DHT22;7459;53.590;10.062;2024-01-30T14:51:51;9.00;99.90
14737;DHT22;7459;53.590;10.062;2024-01-30T14:54:17;9.00;99.90
14737;DHT22;7459;53.590;10.062;2024-01-30T14:56:44;9.00;99.90
14737;DHT22;7459;53.590;10.062;2024-01-30T14:59:10;9.10;99.90
14737;DHT22;7459;53.590;10.062;2024-01-30T15:01:35;9.10;99.90
14737;DHT22;7459;53.590;10.062;2024-01-30T15:04:02;9.00;99.90
14737;DHT22;7459;53.590;10.062;2024-01-30T15:06:28;9.10;99.90
14737;DHT22;7459;53.590;10.062;2024-01-30T15:08:54;9.10;99.90
14737;DHT22;7459;53.590;10.062;2024-01-30T15:11:20;9.10;99.90
14737;DHT22;7459;53.590;10.062;2024-01-30T15:13:46;9.10;99.90
14737;DHT22;7459;53.590;10.062;2024-01-30T15:16:12;9.10;99.90
14737;DHT22;7459;53.590;10.062;2024-01-30T15:18:37;9.10;99.90
14737;DHT22;7459;53.590;10.062;2024-01-30T15:21:03;9.00;99.90
14737;DHT22;7459;53.590;10.062;2024-01-30T15:23:29;9.10;99.90
14737;DHT22;7459;53.590;10.062;2024-01-30T15:25:55;9.10;99.90
14737;DHT22;7459;53.590;10.062;2024-01-30T15:28:37;9.10;99.90
14737;DHT22;7459;53.590;10.062;2024-01-30T15:31:04;9.10;99.90
14737;DHT22;7459;53.590;10.062;2024-01-30T15:33:31;9.10;99.90
14737;DHT22;7459;53.590;10.062;2024-01-30T15:36:01;9.10;99.90
14737;DHT22;7459;53.590;10.062;2024-01-30T15:38:27;9.10;99.90
14737;DHT22;7459;53.590;10.062;2024-01-30T15:40:54;9.10;99.90
14737;DHT22;7459;53.590;10.062;2024-01-30T15:43:21;9.10;99.90
14737;DHT22;7459;53.590;10.062;2024-01-30T15:45:47;9.20;99.90
14737;DHT22;7459;53.590;10.062;2024-01-30T15:48:12;9.20;99.90
14737;DHT22;7459;53.590;10.062;2024-01-30T15:50:38;9.20;99.90
14737;DHT22;7459;53.590;10.062;2024-01-30T15:53:04;9.20;99.90